Monday, December 5, 2016, 11:36 AM EST

KW99, Petersburg, Grant County Airport

Location: Petersburg, WV, United States Lat: 38.983
Local Time: 11:36 AM EST (16:36 GMT) Lon: -79.133
Time Zone: US/Eastern Elev: 961 ft

Show me the last for .
Show Decoded

2016-12-05 11:10 METAR KW99 051610Z AUTO 27010G14KT 10SM CLR 12/02 A3003 RMK AO2 T01150017 =
2016-12-05 10:50 METAR KW99 051550Z AUTO 27013G17KT 10SM CLR 11/02 A3003 RMK AO2 T01130020 =
2016-12-05 10:30 METAR KW99 051530Z AUTO 28017G21KT 10SM CLR 11/02 A3002 RMK AO2 T01080018 =
2016-12-05 10:10 METAR KW99 051510Z AUTO 30014G20KT 10SM SCT044 SCT050 11/02 A3002 RMK AO2
                 T01110024 =
2016-12-05 09:50 METAR KW99 051450Z AUTO 30009G17KT 10SM SCT042 BKN048 OVC060 11/03 A3003 RMK AO2
                 T01130029 =
2016-12-05 09:30 METAR KW99 051430Z AUTO 29008G15KT 10SM OVC042 11/03 A3002 RMK AO2 T01060028 =
2016-12-05 09:10 METAR KW99 051410Z AUTO 28003KT 10SM OVC042 11/02 A3001 RMK AO2 T01090023 =
2016-12-05 08:50 METAR KW99 051350Z AUTO 05003KT 10SM OVC044 11/03 A3000 RMK AO2 T01110025 =
2016-12-05 08:30 METAR KW99 051330Z AUTO 36003KT 10SM SCT041 BKN047 10/02 A3000 RMK AO2 T01040019
                 =
2016-12-05 08:10 METAR KW99 051310Z AUTO 08005KT 10SM BKN040 09/03 A3000 RMK AO2 T00900026 =
2016-12-05 07:50 METAR KW99 051250Z AUTO 29010G19KT 10SM SCT040 10/03 A2998 RMK AO2 T00950027 =
2016-12-05 07:30 METAR KW99 051230Z AUTO 28013KT 10SM BKN040 BKN047 09/03 A2998 RMK AO2 T00940033
                 =
2016-12-05 07:10 METAR KW99 051210Z AUTO 29013G19KT 10SM BKN040 BKN045 10/04 A2997 RMK AO2
                 T00970038 =
2016-12-05 06:50 METAR KW99 051150Z AUTO 28018G24KT 10SM BKN038 BKN046 10/04 A2996 RMK AO2 P0001
                 60001 70004 T01020038 10106 20045 =
2016-12-05 06:30 METAR KW99 051130Z AUTO 28014G25KT 10SM BKN043 10/04 A2995 RMK AO2 P0001
                 T01030038 =
2016-12-05 06:10 METAR KW99 051110Z AUTO 28015G22KT 10SM BKN043 OVC049 10/04 A2995 RMK AO2 P0001
                 T01040043 =
2016-12-05 05:50 METAR KW99 051050Z AUTO 29004KT 10SM BKN041 OVC047 05/04 A2994 RMK AO2 T00500042
                 =
2016-12-05 05:30 METAR KW99 051030Z AUTO 00000KT 10SM BKN041 OVC047 05/04 A2994 RMK AO2 T00500041
                 =
2016-12-05 05:10 METAR KW99 051010Z AUTO 00000KT 10SM BKN043 OVC049 05/04 A2993 RMK AO2 T00480041
                 =
2016-12-05 04:50 METAR KW99 050950Z AUTO 00000KT 10SM -RA BKN043 OVC049 05/04 A2993 RMK AO2
                 T00470041 =
2016-12-05 04:30 METAR KW99 050930Z AUTO 00000KT 10SM -RA SCT041 OVC048 05/04 A2992 RMK AO2
                 T00500041 =
2016-12-05 04:10 METAR KW99 050910Z AUTO 00000KT 10SM -DZ BKN041 OVC046 05/04 A2993 RMK AO2
                 T00530042 =
2016-12-05 03:50 METAR KW99 050850Z AUTO 00000KT 10SM -DZ OVC041 05/04 A2992 RMK AO2 T00520041 =
2016-12-05 03:30 METAR KW99 050830Z AUTO 00000KT 10SM BKN041 OVC046 05/04 A2992 RMK AO2 T00510040
                 =
2016-12-05 03:10 METAR KW99 050810Z AUTO 00000KT 10SM SCT037 OVC045 06/03 A2992 RMK AO2 T00620034
                 =
2016-12-05 02:50 METAR KW99 050750Z AUTO 19008G14KT 10SM BKN040 OVC049 07/03 A2991 RMK AO2
                 T00700030 =
2016-12-05 02:30 METAR KW99 050730Z AUTO 19010KT 10SM SCT040 OVC047 07/03 A2992 RMK AO2 T00680030
                 =
2016-12-05 02:10 METAR KW99 050710Z AUTO 20008G16KT 10SM SCT040 BKN046 BKN060 07/03 A2992 RMK AO2
                 T00660030 =
2016-12-05 01:50 METAR KW99 050650Z AUTO 18008KT 10SM BKN041 BKN048 BKN060 07/03 A2992 RMK AO2
                 T00650030 =
2016-12-05 01:30 METAR KW99 050630Z AUTO 00000KT 10SM BKN043 BKN060 BKN070 05/03 A2992 RMK AO2
                 T00450031 =
2016-12-05 01:10 METAR KW99 050610Z AUTO 00000KT 10SM -DZ SCT043 SCT050 SCT120 05/03 A2992 RMK
                 AO2 T00450030 =
2016-12-05 00:50 METAR KW99 050550Z AUTO 15009KT 10SM SCT043 SCT050 SCT080 06/03 A2992 RMK AO2
                 60003 T00550026 10055 20035 400621018 =
2016-12-05 00:30 METAR KW99 050530Z AUTO 17008KT 10SM -RA SCT045 BKN050 BKN070 05/03 A2993 RMK
                 AO2 T00540025 =
2016-12-05 00:10 METAR KW99 050510Z AUTO 14007KT 10SM -DZ SCT043 BKN050 BKN070 05/02 A2994 RMK
                 AO2 T00530023 =
2016-12-04 23:50 METAR KW99 050450Z AUTO 15005KT 10SM -RA BKN041 BKN047 OVC060 05/02 A2994 RMK
                 AO2 T00500022 =
2016-12-04 23:30 METAR KW99 050430Z AUTO 15007KT 10SM -RA BKN039 OVC060 05/02 A2996 RMK AO2
                 T00480020 =
2016-12-04 23:10 METAR KW99 050410Z AUTO 17005KT 10SM OVC039 05/02 A2997 RMK AO2 T00460020 =
2016-12-04 22:50 METAR KW99 050350Z AUTO 16006KT 10SM OVC039 05/02 A2997 RMK AO2 T00450020 =
2016-12-04 22:35 METAR KW99 050335Z AUTO 17004KT 10SM OVC039 04/02 A2998 RMK AO2 T00420023 =
2016-12-04 22:10 METAR KW99 050310Z AUTO 14004KT 10SM OVC039 04/02 A2999 RMK AO2 T00410023 =
2016-12-04 21:50 METAR KW99 050250Z AUTO 17005KT 10SM OVC043 04/02 A3000 RMK AO2 60003 T00400022
                 =
2016-12-04 21:30 METAR KW99 050230Z AUTO 16005KT 7SM UP SCT029 OVC046 04/02 A3001 RMK AO2
                 T00400024 =
2016-12-04 21:10 METAR KW99 050210Z AUTO 14004KT 5SM UP BKN029 BKN042 OVC060 04/02 A3002 RMK AO2
                 T00370023 =
2016-12-04 20:50 METAR KW99 050150Z AUTO 00000KT 7SM UP BKN033 BKN042 OVC060 04/03 A3003 RMK AO2
                 P0001 T00360026 =
2016-12-04 20:30 METAR KW99 050130Z AUTO 15003KT 5SM -RA BKN033 BKN042 OVC075 04/02 A3005 RMK AO2
                 T00370020 =
2016-12-04 20:10 METAR KW99 050110Z AUTO 00000KT 5SM -RA BKN035 OVC075 04/03 A3006 RMK AO2
                 T00360025 =
2016-12-04 19:50 METAR KW99 050050Z AUTO 00000KT 5SM RA OVC035 04/02 A3007 RMK AO2 P0001
                 T00380021 =
2016-12-04 19:30 METAR KW99 050030Z AUTO 00000KT 7SM -RA OVC037 04/02 A3008 RMK AO2 T00410021 =
2016-12-04 19:10 METAR KW99 050010Z AUTO 00000KT 10SM -RA OVC037 05/00 A3007 RMK AO2 T00470002 =
2016-12-04 18:50 METAR KW99 042350Z AUTO 00000KT 10SM DZ OVC039 05/00 A3009 RMK AO2 T00500000
                 10062 20045 =
2016-12-04 18:30 METAR KW99 042330Z AUTO 00000KT 10SM OVC039 05/00 A3009 RMK AO2 T00500002 =
2016-12-04 18:10 METAR KW99 042310Z AUTO 00000KT 10SM OVC039 05/00 A3010 RMK AO2 T00511004 =
2016-12-04 17:50 METAR KW99 042250Z AUTO 00000KT 10SM OVC043 05/00 A3011 RMK AO2 T00471002 =
2016-12-04 17:30 METAR KW99 042230Z AUTO 00000KT 10SM BKN043 05/00 A3011 RMK AO2 T00461005 =
2016-12-04 17:10 METAR KW99 042210Z AUTO 00000KT 10SM SCT060 SCT110 05/00 A3010 RMK AO2 T00511003
                 =
2016-12-04 16:50 METAR KW99 042150Z AUTO 12003KT 10SM BKN060 OVC110 05/00 A3011 RMK AO2 T00531003
                 =
2016-12-04 16:30 METAR KW99 042130Z AUTO 00000KT 10SM OVC110 06/00 A3013 RMK AO2 T00551002 =
2016-12-04 16:10 METAR KW99 042110Z AUTO 00000KT 10SM OVC120 06/M01 A3014 RMK AO2 T00581010 =
2016-12-04 15:50 METAR KW99 042050Z AUTO 00000KT 10SM BKN120 06/M01 A3014 RMK AO2 T00581011 =
2016-12-04 15:30 METAR KW99 042030Z AUTO 00000KT 10SM BKN120 06/M01 A3014 RMK AO2 T00601011 =
2016-12-04 15:10 METAR KW99 042010Z AUTO 00000KT 10SM BKN120 06/M01 A3015 RMK AO2 T00611013 =
2016-12-04 14:50 METAR KW99 041950Z AUTO 00000KT 10SM CLR 06/M01 A3015 RMK AO2 T00601011 =
2016-12-04 14:30 METAR KW99 041930Z AUTO 00000KT 10SM SCT100 SCT120 06/M01 A3016 RMK AO2
                 T00601014 =
2016-12-04 14:10 METAR KW99 041910Z AUTO 00000KT 10SM SCT120 06/M01 A3017 RMK AO2 T00601014 =
2016-12-04 13:50 METAR KW99 041850Z AUTO 00000KT 10SM SCT120 06/M01 A3017 RMK AO2 T00601015 =
2016-12-04 13:30 METAR KW99 041830Z AUTO 00000KT 10SM SCT120 06/M02 A3017 RMK AO2 T00561018 =
2016-12-04 13:10 METAR KW99 041810Z AUTO 13003KT 10SM CLR 06/M01 A3018 RMK AO2 T00551015 =
2016-12-04 12:50 METAR KW99 041750Z AUTO 12003KT 10SM BKN110 06/M02 A3020 RMK AO2 T00551016 10055
                 21015 =
2016-12-04 12:30 METAR KW99 041730Z AUTO 00000KT 10SM BKN120 05/M01 A3021 RMK AO2 T00511013 =
2016-12-04 12:10 METAR KW99 041710Z AUTO 00000KT 10SM SCT120 05/M02 A3024 RMK AO2 T00501016 =
2016-12-04 11:50 METAR KW99 041650Z AUTO 00000KT 10SM SCT120 05/M01 A3024 RMK AO2 T00451011 =

Support USWX by starting your Amazon purchase here.